sensor_id;sensor_type;location;lat;lon;timestamp;P1;durP1;ratioP1;P2;durP2;ratioP2
9115;SDS011;4593;53.652;10.168;2023-04-21T00:00:59;11.30;;;7.20;;
9115;SDS011;4593;53.652;10.168;2023-04-21T00:03:25;11.00;;;7.00;;
9115;SDS011;4593;53.652;10.168;2023-04-21T00:05:52;13.07;;;7.23;;
9115;SDS011;4593;53.652;10.168;2023-04-21T00:08:20;14.57;;;6.77;;
9115;SDS011;4593;53.652;10.168;2023-04-21T00:10:46;10.47;;;7.20;;
9115;SDS011;4593;53.652;10.168;2023-04-21T00:13:12;17.03;;;7.00;;
9115;SDS011;4593;53.652;10.168;2023-04-21T00:15:37;14.40;;;7.30;;
9115;SDS011;4593;53.652;10.168;2023-04-21T00:18:03;12.83;;;7.03;;
9115;SDS011;4593;53.652;10.168;2023-04-21T00:20:29;22.50;;;7.13;;
9115;SDS011;4593;53.652;10.168;2023-04-21T00:22:55;11.63;;;6.57;;
9115;SDS011;4593;53.652;10.168;2023-04-21T00:25:22;14.33;;;7.53;;
9115;SDS011;4593;53.652;10.168;2023-04-21T00:27:48;9.03;;;6.70;;
9115;SDS011;4593;53.652;10.168;2023-04-21T00:30:14;10.77;;;7.10;;
9115;SDS011;4593;53.652;10.168;2023-04-21T00:32:40;10.93;;;6.87;;
9115;SDS011;4593;53.652;10.168;2023-04-21T00:35:06;9.07;;;6.77;;
9115;SDS011;4593;53.652;10.168;2023-04-21T00:37:32;11.53;;;7.57;;
9115;SDS011;4593;53.652;10.168;2023-04-21T00:39:58;12.67;;;7.00;;
9115;SDS011;4593;53.652;10.168;2023-04-21T00:42:24;12.37;;;6.87;;
9115;SDS011;4593;53.652;10.168;2023-04-21T00:44:49;11.60;;;6.50;;
9115;SDS011;4593;53.652;10.168;2023-04-21T00:47:16;21.80;;;7.23;;
9115;SDS011;4593;53.652;10.168;2023-04-21T00:49:42;10.50;;;6.90;;
9115;SDS011;4593;53.652;10.168;2023-04-21T00:52:08;13.83;;;7.77;;
9115;SDS011;4593;53.652;10.168;2023-04-21T00:54:34;13.10;;;7.30;;
9115;SDS011;4593;53.652;10.168;2023-04-21T00:57:00;13.80;;;7.47;;
9115;SDS011;4593;53.652;10.168;2023-04-21T00:59:27;14.27;;;7.47;;
9115;SDS011;4593;53.652;10.168;2023-04-21T01:01:53;15.63;;;7.60;;
9115;SDS011;4593;53.652;10.168;2023-04-21T01:04:19;12.57;;;6.97;;
9115;SDS011;4593;53.652;10.168;2023-04-21T01:06:45;13.37;;;5.87;;
9115;SDS011;4593;53.652;10.168;2023-04-21T01:09:11;11.27;;;6.10;;
9115;SDS011;4593;53.652;10.168;2023-04-21T01:11:37;12.17;;;8.77;;
9115;SDS011;4593;53.652;10.168;2023-04-21T01:14:03;11.77;;;6.73;;
9115;SDS011;4593;53.652;10.168;2023-04-21T01:16:29;11.07;;;7.60;;
9115;SDS011;4593;53.652;10.168;2023-04-21T01:18:59;15.63;;;7.30;;
9115;SDS011;4593;53.652;10.168;2023-04-21T01:21:26;11.37;;;7.27;;
9115;SDS011;4593;53.652;10.168;2023-04-21T01:23:53;11.47;;;7.03;;
9115;SDS011;4593;53.652;10.168;2023-04-21T01:26:19;12.10;;;7.47;;
9115;SDS011;4593;53.652;10.168;2023-04-21T01:28:45;10.27;;;6.47;;
9115;SDS011;4593;53.652;10.168;2023-04-21T01:31:13;10.77;;;7.50;;
9115;SDS011;4593;53.652;10.168;2023-04-21T01:33:39;12.37;;;7.17;;
9115;SDS011;4593;53.652;10.168;2023-04-21T01:36:05;12.23;;;7.13;;
9115;SDS011;4593;53.652;10.168;2023-04-21T01:38:31;14.77;;;6.70;;
9115;SDS011;4593;53.652;10.168;2023-04-21T01:40:57;11.63;;;7.50;;
9115;SDS011;4593;53.652;10.168;2023-04-21T01:43:23;10.23;;;7.33;;
9115;SDS011;4593;53.652;10.168;2023-04-21T01:45:50;9.83;;;6.33;;
9115;SDS011;4593;53.652;10.168;2023-04-21T01:48:16;12.77;;;6.63;;
9115;SDS011;4593;53.652;10.168;2023-04-21T01:50:42;12.37;;;6.50;;
9115;SDS011;4593;53.652;10.168;2023-04-21T01:53:08;13.07;;;6.70;;
9115;SDS011;4593;53.652;10.168;2023-04-21T01:55:33;18.57;;;7.00;;
9115;SDS011;4593;53.652;10.168;2023-04-21T01:57:59;9.70;;;6.33;;
9115;SDS011;4593;53.652;10.168;2023-04-21T02:00:25;9.10;;;6.93;;
9115;SDS011;4593;53.652;10.168;2023-04-21T02:02:51;9.50;;;6.80;;
9115;SDS011;4593;53.652;10.168;2023-04-21T02:05:17;17.73;;;7.07;;
9115;SDS011;4593;53.652;10.168;2023-04-21T02:07:43;9.97;;;6.53;;
9115;SDS011;4593;53.652;10.168;2023-04-21T02:10:09;13.97;;;7.00;;
9115;SDS011;4593;53.652;10.168;2023-04-21T02:12:35;11.87;;;6.57;;
9115;SDS011;4593;53.652;10.168;2023-04-21T02:15:01;10.80;;;6.50;;
9115;SDS011;4593;53.652;10.168;2023-04-21T02:17:27;8.30;;;6.83;;
9115;SDS011;4593;53.652;10.168;2023-04-21T02:19:53;12.80;;;6.40;;
9115;SDS011;4593;53.652;10.168;2023-04-21T02:22:18;17.30;;;6.50;;
9115;SDS011;4593;53.652;10.168;2023-04-21T02:24:46;8.17;;;5.97;;
9115;SDS011;4593;53.652;10.168;2023-04-21T02:27:12;9.03;;;6.20;;
9115;SDS011;4593;53.652;10.168;2023-04-21T02:29:38;9.23;;;6.10;;
9115;SDS011;4593;53.652;10.168;2023-04-21T02:32:04;8.67;;;6.30;;
9115;SDS011;4593;53.652;10.168;2023-04-21T02:34:29;12.63;;;6.27;;
9115;SDS011;4593;53.652;10.168;2023-04-21T02:36:55;10.60;;;6.23;;
9115;SDS011;4593;53.652;10.168;2023-04-21T02:39:21;9.97;;;6.50;;
9115;SDS011;4593;53.652;10.168;2023-04-21T02:41:46;12.33;;;6.23;;
9115;SDS011;4593;53.652;10.168;2023-04-21T02:44:12;6.13;;;5.53;;
9115;SDS011;4593;53.652;10.168;2023-04-21T02:46:41;10.00;;;6.27;;
9115;SDS011;4593;53.652;10.168;2023-04-21T02:49:07;13.27;;;6.20;;
9115;SDS011;4593;53.652;10.168;2023-04-21T02:51:33;6.73;;;5.47;;
9115;SDS011;4593;53.652;10.168;2023-04-21T02:53:59;12.67;;;6.53;;
9115;SDS011;4593;53.652;10.168;2023-04-21T02:56:24;11.03;;;5.83;;
9115;SDS011;4593;53.652;10.168;2023-04-21T02:58:50;10.00;;;6.60;;
9115;SDS011;4593;53.652;10.168;2023-04-21T03:01:16;9.47;;;6.60;;
9115;SDS011;4593;53.652;10.168;2023-04-21T03:03:41;13.30;;;6.50;;
9115;SDS011;4593;53.652;10.168;2023-04-21T03:06:07;11.97;;;6.90;;
9115;SDS011;4593;53.652;10.168;2023-04-21T03:08:33;10.23;;;6.30;;
9115;SDS011;4593;53.652;10.168;2023-04-21T03:10:58;8.83;;;6.03;;
9115;SDS011;4593;53.652;10.168;2023-04-21T03:13:24;11.73;;;6.43;;
9115;SDS011;4593;53.652;10.168;2023-04-21T03:15:50;13.40;;;6.50;;
9115;SDS011;4593;53.652;10.168;2023-04-21T03:18:16;12.57;;;6.50;;
9115;SDS011;4593;53.652;10.168;2023-04-21T03:20:42;9.10;;;5.97;;
9115;SDS011;4593;53.652;10.168;2023-04-21T03:23:08;11.10;;;6.03;;
9115;SDS011;4593;53.652;10.168;2023-04-21T03:25:34;13.90;;;6.70;;
9115;SDS011;4593;53.652;10.168;2023-04-21T03:28:00;16.07;;;6.47;;
9115;SDS011;4593;53.652;10.168;2023-04-21T03:30:25;10.07;;;6.47;;
9115;SDS011;4593;53.652;10.168;2023-04-21T03:32:51;7.87;;;5.73;;
9115;SDS011;4593;53.652;10.168;2023-04-21T03:35:19;16.60;;;6.83;;
9115;SDS011;4593;53.652;10.168;2023-04-21T03:37:45;7.27;;;6.27;;
9115;SDS011;4593;53.652;10.168;2023-04-21T03:40:10;8.33;;;6.20;;
9115;SDS011;4593;53.652;10.168;2023-04-21T03:42:36;9.10;;;6.30;;
9115;SDS011;4593;53.652;10.168;2023-04-21T03:45:02;14.83;;;6.90;;
9115;SDS011;4593;53.652;10.168;2023-04-21T03:47:29;15.03;;;6.33;;
9115;SDS011;4593;53.652;10.168;2023-04-21T03:49:55;9.03;;;6.53;;
9115;SDS011;4593;53.652;10.168;2023-04-21T03:52:21;12.83;;;5.97;;
9115;SDS011;4593;53.652;10.168;2023-04-21T03:54:47;7.67;;;5.97;;
9115;SDS011;4593;53.652;10.168;2023-04-21T03:57:13;11.23;;;6.50;;
9115;SDS011;4593;53.652;10.168;2023-04-21T03:59:39;7.60;;;5.70;;
9115;SDS011;4593;53.652;10.168;2023-04-21T04:02:05;10.30;;;6.27;;
9115;SDS011;4593;53.652;10.168;2023-04-21T04:04:30;13.77;;;6.73;;
9115;SDS011;4593;53.652;10.168;2023-04-21T04:06:56;8.73;;;5.97;;
9115;SDS011;4593;53.652;10.168;2023-04-21T04:09:22;16.00;;;7.17;;
9115;SDS011;4593;53.652;10.168;2023-04-21T04:11:48;13.23;;;6.80;;
9115;SDS011;4593;53.652;10.168;2023-04-21T04:14:13;8.70;;;6.40;;
9115;SDS011;4593;53.652;10.168;2023-04-21T04:16:39;15.60;;;7.10;;
9115;SDS011;4593;53.652;10.168;2023-04-21T04:19:05;6.93;;;5.97;;
9115;SDS011;4593;53.652;10.168;2023-04-21T04:21:31;13.90;;;6.97;;
9115;SDS011;4593;53.652;10.168;2023-04-21T04:23:57;14.23;;;6.40;;
9115;SDS011;4593;53.652;10.168;2023-04-21T04:26:23;11.70;;;5.60;;
9115;SDS011;4593;53.652;10.168;2023-04-21T04:28:49;11.13;;;6.27;;
9115;SDS011;4593;53.652;10.168;2023-04-21T04:31:20;7.57;;;6.03;;
9115;SDS011;4593;53.652;10.168;2023-04-21T04:33:49;11.93;;;6.30;;
9115;SDS011;4593;53.652;10.168;2023-04-21T04:36:15;7.93;;;5.77;;
9115;SDS011;4593;53.652;10.168;2023-04-21T04:38:42;14.37;;;6.07;;
9115;SDS011;4593;53.652;10.168;2023-04-21T04:41:07;8.43;;;5.83;;
9115;SDS011;4593;53.652;10.168;2023-04-21T04:43:33;6.73;;;5.73;;
9115;SDS011;4593;53.652;10.168;2023-04-21T04:46:04;11.47;;;6.67;;
9115;SDS011;4593;53.652;10.168;2023-04-21T04:48:30;6.70;;;6.00;;
9115;SDS011;4593;53.652;10.168;2023-04-21T04:50:56;6.97;;;5.93;;
9115;SDS011;4593;53.652;10.168;2023-04-21T04:53:21;17.70;;;6.70;;
9115;SDS011;4593;53.652;10.168;2023-04-21T04:55:47;12.47;;;6.27;;
9115;SDS011;4593;53.652;10.168;2023-04-21T04:58:13;11.13;;;6.10;;
9115;SDS011;4593;53.652;10.168;2023-04-21T05:00:39;15.43;;;6.47;;
9115;SDS011;4593;53.652;10.168;2023-04-21T05:03:05;13.53;;;6.67;;
9115;SDS011;4593;53.652;10.168;2023-04-21T05:05:30;16.90;;;6.37;;
9115;SDS011;4593;53.652;10.168;2023-04-21T05:07:56;9.37;;;5.87;;
9115;SDS011;4593;53.652;10.168;2023-04-21T05:10:22;9.87;;;6.67;;
9115;SDS011;4593;53.652;10.168;2023-04-21T05:12:48;11.73;;;6.67;;
9115;SDS011;4593;53.652;10.168;2023-04-21T05:15:14;8.80;;;5.90;;
9115;SDS011;4593;53.652;10.168;2023-04-21T05:17:40;8.07;;;6.17;;
9115;SDS011;4593;53.652;10.168;2023-04-21T05:20:06;9.40;;;6.27;;
9115;SDS011;4593;53.652;10.168;2023-04-21T05:22:39;9.90;;;5.87;;
9115;SDS011;4593;53.652;10.168;2023-04-21T05:25:05;13.10;;;6.60;;
9115;SDS011;4593;53.652;10.168;2023-04-21T05:27:31;12.97;;;6.27;;
9115;SDS011;4593;53.652;10.168;2023-04-21T05:29:58;12.67;;;6.40;;
9115;SDS011;4593;53.652;10.168;2023-04-21T05:32:24;10.30;;;6.30;;
9115;SDS011;4593;53.652;10.168;2023-04-21T05:34:50;10.50;;;6.07;;
9115;SDS011;4593;53.652;10.168;2023-04-21T05:37:15;17.23;;;6.90;;
9115;SDS011;4593;53.652;10.168;2023-04-21T05:39:41;11.13;;;5.73;;
9115;SDS011;4593;53.652;10.168;2023-04-21T05:42:10;9.77;;;5.87;;
9115;SDS011;4593;53.652;10.168;2023-04-21T05:44:36;9.30;;;6.10;;
9115;SDS011;4593;53.652;10.168;2023-04-21T05:47:05;10.33;;;6.23;;
9115;SDS011;4593;53.652;10.168;2023-04-21T05:49:31;14.13;;;6.23;;
9115;SDS011;4593;53.652;10.168;2023-04-21T05:51:57;10.83;;;5.97;;
9115;SDS011;4593;53.652;10.168;2023-04-21T05:54:23;6.03;;;5.43;;
9115;SDS011;4593;53.652;10.168;2023-04-21T05:56:48;8.17;;;5.93;;
9115;SDS011;4593;53.652;10.168;2023-04-21T05:59:14;7.40;;;5.77;;
9115;SDS011;4593;53.652;10.168;2023-04-21T06:01:40;10.97;;;6.40;;
9115;SDS011;4593;53.652;10.168;2023-04-21T06:04:06;8.97;;;6.30;;
9115;SDS011;4593;53.652;10.168;2023-04-21T06:06:32;9.47;;;6.20;;
9115;SDS011;4593;53.652;10.168;2023-04-21T06:08:58;10.90;;;6.30;;
9115;SDS011;4593;53.652;10.168;2023-04-21T06:11:24;10.73;;;5.63;;
9115;SDS011;4593;53.652;10.168;2023-04-21T06:13:49;9.77;;;5.73;;
9115;SDS011;4593;53.652;10.168;2023-04-21T06:16:17;13.97;;;5.73;;
9115;SDS011;4593;53.652;10.168;2023-04-21T06:18:43;15.23;;;5.60;;
9115;SDS011;4593;53.652;10.168;2023-04-21T06:21:09;9.03;;;5.60;;
9115;SDS011;4593;53.652;10.168;2023-04-21T06:23:35;7.63;;;6.07;;
9115;SDS011;4593;53.652;10.168;2023-04-21T06:26:01;11.07;;;5.53;;
9115;SDS011;4593;53.652;10.168;2023-04-21T06:28:29;7.83;;;5.23;;
9115;SDS011;4593;53.652;10.168;2023-04-21T06:30:56;13.10;;;6.47;;
9115;SDS011;4593;53.652;10.168;2023-04-21T06:33:22;7.10;;;5.60;;
9115;SDS011;4593;53.652;10.168;2023-04-21T06:35:48;11.10;;;6.07;;
9115;SDS011;4593;53.652;10.168;2023-04-21T06:38:13;13.47;;;5.47;;
9115;SDS011;4593;53.652;10.168;2023-04-21T06:40:39;9.00;;;5.57;;
9115;SDS011;4593;53.652;10.168;2023-04-21T06:43:05;8.37;;;5.47;;
9115;SDS011;4593;53.652;10.168;2023-04-21T06:45:31;8.47;;;6.03;;
9115;SDS011;4593;53.652;10.168;2023-04-21T06:47:56;9.07;;;6.30;;
9115;SDS011;4593;53.652;10.168;2023-04-21T06:50:22;11.57;;;5.63;;
9115;SDS011;4593;53.652;10.168;2023-04-21T06:52:48;8.17;;;5.23;;
9115;SDS011;4593;53.652;10.168;2023-04-21T06:55:13;8.17;;;5.00;;
9115;SDS011;4593;53.652;10.168;2023-04-21T06:57:39;7.10;;;5.63;;
9115;SDS011;4593;53.652;10.168;2023-04-21T07:00:05;8.83;;;5.40;;
9115;SDS011;4593;53.652;10.168;2023-04-21T07:02:31;6.07;;;5.20;;
9115;SDS011;4593;53.652;10.168;2023-04-21T07:04:57;9.93;;;6.83;;
9115;SDS011;4593;53.652;10.168;2023-04-21T07:07:22;10.03;;;5.40;;
9115;SDS011;4593;53.652;10.168;2023-04-21T07:09:48;8.67;;;5.50;;
9115;SDS011;4593;53.652;10.168;2023-04-21T07:12:14;8.27;;;5.10;;
9115;SDS011;4593;53.652;10.168;2023-04-21T07:14:39;9.43;;;6.20;;
9115;SDS011;4593;53.652;10.168;2023-04-21T07:17:05;11.23;;;6.13;;
9115;SDS011;4593;53.652;10.168;2023-04-21T07:19:31;12.50;;;5.70;;
9115;SDS011;4593;53.652;10.168;2023-04-21T07:21:56;8.60;;;4.90;;
9115;SDS011;4593;53.652;10.168;2023-04-21T07:24:23;9.07;;;4.80;;
9115;SDS011;4593;53.652;10.168;2023-04-21T07:26:48;8.30;;;5.40;;
9115;SDS011;4593;53.652;10.168;2023-04-21T07:29:14;8.73;;;5.40;;
9115;SDS011;4593;53.652;10.168;2023-04-21T07:31:40;5.47;;;4.97;;
9115;SDS011;4593;53.652;10.168;2023-04-21T07:34:05;14.27;;;6.20;;
9115;SDS011;4593;53.652;10.168;2023-04-21T07:36:31;11.40;;;5.60;;
9115;SDS011;4593;53.652;10.168;2023-04-21T07:38:57;10.77;;;5.43;;
9115;SDS011;4593;53.652;10.168;2023-04-21T07:41:22;9.50;;;5.50;;
9115;SDS011;4593;53.652;10.168;2023-04-21T07:43:48;8.87;;;5.73;;
9115;SDS011;4593;53.652;10.168;2023-04-21T07:46:14;5.97;;;5.17;;
9115;SDS011;4593;53.652;10.168;2023-04-21T07:48:39;11.43;;;5.63;;
9115;SDS011;4593;53.652;10.168;2023-04-21T07:51:05;9.07;;;5.60;;
9115;SDS011;4593;53.652;10.168;2023-04-21T07:53:31;8.47;;;4.80;;
9115;SDS011;4593;53.652;10.168;2023-04-21T07:55:57;8.67;;;5.63;;
9115;SDS011;4593;53.652;10.168;2023-04-21T07:58:23;7.63;;;5.10;;
9115;SDS011;4593;53.652;10.168;2023-04-21T08:00:48;6.87;;;4.67;;
9115;SDS011;4593;53.652;10.168;2023-04-21T08:03:14;14.13;;;5.93;;
9115;SDS011;4593;53.652;10.168;2023-04-21T08:05:40;5.87;;;4.77;;
9115;SDS011;4593;53.652;10.168;2023-04-21T08:08:06;15.23;;;5.83;;
9115;SDS011;4593;53.652;10.168;2023-04-21T08:10:32;7.50;;;5.37;;
9115;SDS011;4593;53.652;10.168;2023-04-21T08:12:58;10.63;;;5.73;;
9115;SDS011;4593;53.652;10.168;2023-04-21T08:15:23;6.70;;;5.23;;
9115;SDS011;4593;53.652;10.168;2023-04-21T08:17:49;7.77;;;5.40;;
9115;SDS011;4593;53.652;10.168;2023-04-21T08:20:15;7.40;;;5.67;;
9115;SDS011;4593;53.652;10.168;2023-04-21T08:22:41;7.80;;;5.37;;
9115;SDS011;4593;53.652;10.168;2023-04-21T08:25:07;9.07;;;5.40;;
9115;SDS011;4593;53.652;10.168;2023-04-21T08:27:33;7.83;;;5.23;;
9115;SDS011;4593;53.652;10.168;2023-04-21T08:30:01;12.93;;;5.97;;
9115;SDS011;4593;53.652;10.168;2023-04-21T08:32:26;8.23;;;5.50;;
9115;SDS011;4593;53.652;10.168;2023-04-21T08:34:53;6.53;;;5.20;;
9115;SDS011;4593;53.652;10.168;2023-04-21T08:37:19;7.90;;;5.80;;
9115;SDS011;4593;53.652;10.168;2023-04-21T08:39:45;11.60;;;6.30;;
9115;SDS011;4593;53.652;10.168;2023-04-21T08:42:12;9.03;;;6.70;;
9115;SDS011;4593;53.652;10.168;2023-04-21T08:44:41;10.80;;;5.53;;
9115;SDS011;4593;53.652;10.168;2023-04-21T08:47:10;16.20;;;6.57;;
9115;SDS011;4593;53.652;10.168;2023-04-21T08:49:37;11.90;;;5.13;;
9115;SDS011;4593;53.652;10.168;2023-04-21T08:52:04;8.00;;;5.83;;
9115;SDS011;4593;53.652;10.168;2023-04-21T08:54:31;10.23;;;6.43;;
9115;SDS011;4593;53.652;10.168;2023-04-21T08:56:57;10.57;;;5.83;;
9115;SDS011;4593;53.652;10.168;2023-04-21T08:59:23;9.37;;;5.67;;
9115;SDS011;4593;53.652;10.168;2023-04-21T09:02:10;9.47;;;5.53;;
9115;SDS011;4593;53.652;10.168;2023-04-21T09:04:37;6.70;;;5.50;;
9115;SDS011;4593;53.652;10.168;2023-04-21T09:07:04;12.07;;;5.60;;
9115;SDS011;4593;53.652;10.168;2023-04-21T09:09:29;12.17;;;5.63;;
9115;SDS011;4593;53.652;10.168;2023-04-21T09:11:55;8.63;;;5.50;;
9115;SDS011;4593;53.652;10.168;2023-04-21T09:14:31;14.13;;;5.67;;
9115;SDS011;4593;53.652;10.168;2023-04-21T09:17:01;6.37;;;5.47;;
9115;SDS011;4593;53.652;10.168;2023-04-21T09:19:29;7.77;;;5.23;;
9115;SDS011;4593;53.652;10.168;2023-04-21T09:21:57;10.07;;;5.77;;
9115;SDS011;4593;53.652;10.168;2023-04-21T09:24:25;8.70;;;5.40;;
9115;SDS011;4593;53.652;10.168;2023-04-21T09:26:51;9.87;;;5.53;;
9115;SDS011;4593;53.652;10.168;2023-04-21T09:29:17;6.57;;;5.33;;
9115;SDS011;4593;53.652;10.168;2023-04-21T09:31:50;8.63;;;5.70;;
9115;SDS011;4593;53.652;10.168;2023-04-21T09:34:17;9.10;;;5.87;;
9115;SDS011;4593;53.652;10.168;2023-04-21T09:36:44;11.53;;;5.70;;
9115;SDS011;4593;53.652;10.168;2023-04-21T09:39:11;7.67;;;5.80;;
9115;SDS011;4593;53.652;10.168;2023-04-21T09:41:37;10.93;;;5.90;;
9115;SDS011;4593;53.652;10.168;2023-04-21T09:44:02;7.97;;;5.40;;
9115;SDS011;4593;53.652;10.168;2023-04-21T09:46:29;7.93;;;5.60;;
9115;SDS011;4593;53.652;10.168;2023-04-21T09:48:59;9.20;;;5.63;;
9115;SDS011;4593;53.652;10.168;2023-04-21T09:51:25;12.33;;;5.93;;
9115;SDS011;4593;53.652;10.168;2023-04-21T09:53:53;11.23;;;5.37;;
9115;SDS011;4593;53.652;10.168;2023-04-21T09:56:23;7.23;;;5.60;;
9115;SDS011;4593;53.652;10.168;2023-04-21T09:58:53;6.30;;;5.70;;
9115;SDS011;4593;53.652;10.168;2023-04-21T10:01:23;8.90;;;6.17;;
9115;SDS011;4593;53.652;10.168;2023-04-21T10:03:51;11.27;;;5.57;;
9115;SDS011;4593;53.652;10.168;2023-04-21T10:06:17;6.57;;;5.13;;
9115;SDS011;4593;53.652;10.168;2023-04-21T10:08:43;9.33;;;5.83;;
9115;SDS011;4593;53.652;10.168;2023-04-21T10:11:10;8.13;;;5.60;;
9115;SDS011;4593;53.652;10.168;2023-04-21T10:13:37;7.20;;;5.60;;
9115;SDS011;4593;53.652;10.168;2023-04-21T10:16:09;8.53;;;5.60;;
9115;SDS011;4593;53.652;10.168;2023-04-21T10:18:42;6.43;;;5.67;;
9115;SDS011;4593;53.652;10.168;2023-04-21T10:21:10;8.70;;;5.63;;
9115;SDS011;4593;53.652;10.168;2023-04-21T10:23:49;8.97;;;5.87;;
9115;SDS011;4593;53.652;10.168;2023-04-21T10:26:24;9.37;;;5.67;;
9115;SDS011;4593;53.652;10.168;2023-04-21T10:28:58;9.43;;;5.90;;
9115;SDS011;4593;53.652;10.168;2023-04-21T10:31:31;12.00;;;6.30;;
9115;SDS011;4593;53.652;10.168;2023-04-21T10:34:17;7.93;;;5.30;;
9115;SDS011;4593;53.652;10.168;2023-04-21T10:39:11;9.80;;;6.60;;
9115;SDS011;4593;53.652;10.168;2023-04-21T10:44:40;11.70;;;5.93;;
9115;SDS011;4593;53.652;10.168;2023-04-21T10:47:15;7.93;;;5.33;;
9115;SDS011;4593;53.652;10.168;2023-04-21T10:50:10;7.70;;;6.13;;
9115;SDS011;4593;53.652;10.168;2023-04-21T10:52:42;10.53;;;6.10;;
9115;SDS011;4593;53.652;10.168;2023-04-21T10:55:09;6.73;;;5.57;;
9115;SDS011;4593;53.652;10.168;2023-04-21T10:57:37;9.67;;;5.93;;
9115;SDS011;4593;53.652;10.168;2023-04-21T11:00:08;7.20;;;5.30;;
9115;SDS011;4593;53.652;10.168;2023-04-21T11:02:34;7.23;;;5.80;;
9115;SDS011;4593;53.652;10.168;2023-04-21T11:05:00;13.43;;;5.80;;
9115;SDS011;4593;53.652;10.168;2023-04-21T11:07:26;8.43;;;5.60;;
9115;SDS011;4593;53.652;10.168;2023-04-21T11:09:56;9.80;;;6.50;;
9115;SDS011;4593;53.652;10.168;2023-04-21T11:12:24;11.50;;;5.57;;
9115;SDS011;4593;53.652;10.168;2023-04-21T11:14:55;7.50;;;5.63;;
9115;SDS011;4593;53.652;10.168;2023-04-21T11:17:21;8.70;;;5.47;;
9115;SDS011;4593;53.652;10.168;2023-04-21T11:19:49;8.87;;;5.47;;
9115;SDS011;4593;53.652;10.168;2023-04-21T11:22:19;7.93;;;5.97;;
9115;SDS011;4593;53.652;10.168;2023-04-21T11:24:47;9.03;;;5.70;;
9115;SDS011;4593;53.652;10.168;2023-04-21T11:27:14;10.33;;;5.77;;
9115;SDS011;4593;53.652;10.168;2023-04-21T11:29:43;7.17;;;5.77;;
9115;SDS011;4593;53.652;10.168;2023-04-21T11:32:12;9.00;;;5.60;;
9115;SDS011;4593;53.652;10.168;2023-04-21T11:34:39;7.07;;;5.50;;
9115;SDS011;4593;53.652;10.168;2023-04-21T11:37:09;7.60;;;5.73;;
9115;SDS011;4593;53.652;10.168;2023-04-21T11:39:39;8.43;;;5.87;;
9115;SDS011;4593;53.652;10.168;2023-04-21T11:42:06;7.30;;;5.67;;
9115;SDS011;4593;53.652;10.168;2023-04-21T11:44:32;11.83;;;4.77;;
9115;SDS011;4593;53.652;10.168;2023-04-21T11:47:17;8.83;;;5.37;;
9115;SDS011;4593;53.652;10.168;2023-04-21T11:49:48;9.97;;;5.43;;
9115;SDS011;4593;53.652;10.168;2023-04-21T11:52:28;7.73;;;4.80;;
9115;SDS011;4593;53.652;10.168;2023-04-21T11:54:59;10.57;;;5.80;;
9115;SDS011;4593;53.652;10.168;2023-04-21T11:57:27;8.10;;;5.70;;
9115;SDS011;4593;53.652;10.168;2023-04-21T11:59:57;11.03;;;5.37;;
9115;SDS011;4593;53.652;10.168;2023-04-21T12:02:24;12.30;;;5.30;;
9115;SDS011;4593;53.652;10.168;2023-04-21T12:05:00;7.33;;;5.73;;
9115;SDS011;4593;53.652;10.168;2023-04-21T12:07:39;10.43;;;6.10;;
9115;SDS011;4593;53.652;10.168;2023-04-21T12:10:09;9.03;;;5.43;;
9115;SDS011;4593;53.652;10.168;2023-04-21T12:12:41;6.90;;;5.47;;
9115;SDS011;4593;53.652;10.168;2023-04-21T12:15:08;6.87;;;5.27;;
9115;SDS011;4593;53.652;10.168;2023-04-21T12:17:38;8.80;;;4.93;;
9115;SDS011;4593;53.652;10.168;2023-04-21T12:20:07;8.50;;;5.33;;
9115;SDS011;4593;53.652;10.168;2023-04-21T12:22:33;7.50;;;5.23;;
9115;SDS011;4593;53.652;10.168;2023-04-21T12:24:59;9.20;;;4.70;;
9115;SDS011;4593;53.652;10.168;2023-04-21T12:27:25;7.17;;;5.27;;
9115;SDS011;4593;53.652;10.168;2023-04-21T12:29:52;9.23;;;5.10;;
9115;SDS011;4593;53.652;10.168;2023-04-21T12:32:17;11.13;;;5.57;;
9115;SDS011;4593;53.652;10.168;2023-04-21T12:34:43;8.90;;;5.20;;
9115;SDS011;4593;53.652;10.168;2023-04-21T12:37:09;7.27;;;5.53;;
9115;SDS011;4593;53.652;10.168;2023-04-21T12:39:35;9.27;;;5.67;;
9115;SDS011;4593;53.652;10.168;2023-04-21T12:42:00;13.03;;;5.47;;
9115;SDS011;4593;53.652;10.168;2023-04-21T12:44:26;10.07;;;5.63;;
9115;SDS011;4593;53.652;10.168;2023-04-21T12:46:52;11.30;;;5.97;;
9115;SDS011;4593;53.652;10.168;2023-04-21T12:49:18;7.67;;;5.50;;
9115;SDS011;4593;53.652;10.168;2023-04-21T12:51:44;7.17;;;5.10;;
9115;SDS011;4593;53.652;10.168;2023-04-21T12:54:10;8.97;;;5.07;;
9115;SDS011;4593;53.652;10.168;2023-04-21T12:56:36;10.07;;;5.07;;
9115;SDS011;4593;53.652;10.168;2023-04-21T12:59:04;7.67;;;4.80;;
9115;SDS011;4593;53.652;10.168;2023-04-21T13:01:34;8.70;;;5.10;;
9115;SDS011;4593;53.652;10.168;2023-04-21T13:04:01;10.17;;;5.63;;
9115;SDS011;4593;53.652;10.168;2023-04-21T13:06:27;10.10;;;5.40;;
9115;SDS011;4593;53.652;10.168;2023-04-21T13:08:53;6.73;;;4.90;;
9115;SDS011;4593;53.652;10.168;2023-04-21T13:11:19;10.87;;;5.17;;
9115;SDS011;4593;53.652;10.168;2023-04-21T13:13:45;7.10;;;5.00;;
9115;SDS011;4593;53.652;10.168;2023-04-21T13:16:11;10.33;;;5.33;;
9115;SDS011;4593;53.652;10.168;2023-04-21T13:18:37;7.57;;;5.43;;
9115;SDS011;4593;53.652;10.168;2023-04-21T13:21:03;8.97;;;4.97;;
9115;SDS011;4593;53.652;10.168;2023-04-21T13:23:30;9.87;;;5.00;;
9115;SDS011;4593;53.652;10.168;2023-04-21T13:25:56;9.87;;;5.27;;
9115;SDS011;4593;53.652;10.168;2023-04-21T13:28:22;6.87;;;5.07;;
9115;SDS011;4593;53.652;10.168;2023-04-21T13:30:50;7.40;;;5.40;;
9115;SDS011;4593;53.652;10.168;2023-04-21T13:33:16;8.30;;;4.90;;
9115;SDS011;4593;53.652;10.168;2023-04-21T13:35:42;11.80;;;4.77;;
9115;SDS011;4593;53.652;10.168;2023-04-21T13:38:08;13.13;;;5.40;;
9115;SDS011;4593;53.652;10.168;2023-04-21T13:40:33;10.80;;;4.57;;
9115;SDS011;4593;53.652;10.168;2023-04-21T13:42:59;11.87;;;5.30;;
9115;SDS011;4593;53.652;10.168;2023-04-21T13:45:25;16.47;;;5.07;;
9115;SDS011;4593;53.652;10.168;2023-04-21T13:47:51;10.10;;;5.50;;
9115;SDS011;4593;53.652;10.168;2023-04-21T13:50:17;9.93;;;5.30;;
9115;SDS011;4593;53.652;10.168;2023-04-21T13:52:43;7.80;;;4.80;;
9115;SDS011;4593;53.652;10.168;2023-04-21T13:55:08;9.93;;;5.43;;
9115;SDS011;4593;53.652;10.168;2023-04-21T13:57:35;9.40;;;4.53;;
9115;SDS011;4593;53.652;10.168;2023-04-21T14:00:02;6.53;;;4.50;;
9115;SDS011;4593;53.652;10.168;2023-04-21T14:02:30;9.37;;;5.43;;
9115;SDS011;4593;53.652;10.168;2023-04-21T14:04:56;7.63;;;4.90;;
9115;SDS011;4593;53.652;10.168;2023-04-21T14:07:22;9.50;;;4.97;;
9115;SDS011;4593;53.652;10.168;2023-04-21T14:09:48;9.07;;;5.07;;
9115;SDS011;4593;53.652;10.168;2023-04-21T14:12:15;9.30;;;4.73;;
9115;SDS011;4593;53.652;10.168;2023-04-21T14:14:41;7.47;;;4.53;;
9115;SDS011;4593;53.652;10.168;2023-04-21T14:17:07;5.57;;;4.57;;
9115;SDS011;4593;53.652;10.168;2023-04-21T14:19:33;9.27;;;5.07;;
9115;SDS011;4593;53.652;10.168;2023-04-21T14:21:59;11.47;;;4.73;;
9115;SDS011;4593;53.652;10.168;2023-04-21T14:24:24;6.70;;;5.20;;
9115;SDS011;4593;53.652;10.168;2023-04-21T14:26:52;5.70;;;4.60;;
9115;SDS011;4593;53.652;10.168;2023-04-21T14:29:19;11.63;;;4.60;;
9115;SDS011;4593;53.652;10.168;2023-04-21T14:31:45;5.90;;;4.83;;
9115;SDS011;4593;53.652;10.168;2023-04-21T14:34:11;7.50;;;5.03;;
9115;SDS011;4593;53.652;10.168;2023-04-21T14:36:37;9.53;;;5.17;;
9115;SDS011;4593;53.652;10.168;2023-04-21T14:39:02;7.77;;;4.87;;
9115;SDS011;4593;53.652;10.168;2023-04-21T14:41:28;8.87;;;5.00;;
9115;SDS011;4593;53.652;10.168;2023-04-21T14:43:54;10.50;;;5.17;;
9115;SDS011;4593;53.652;10.168;2023-04-21T14:46:21;5.73;;;4.80;;
9115;SDS011;4593;53.652;10.168;2023-04-21T14:48:47;13.70;;;5.03;;
9115;SDS011;4593;53.652;10.168;2023-04-21T14:51:13;9.60;;;4.97;;
9115;SDS011;4593;53.652;10.168;2023-04-21T14:53:38;10.53;;;5.00;;
9115;SDS011;4593;53.652;10.168;2023-04-21T14:56:04;9.20;;;5.20;;
9115;SDS011;4593;53.652;10.168;2023-04-21T14:58:30;8.80;;;4.87;;